sensor_id;sensor_type;location;lat;lon;timestamp;P1;durP1;ratioP1;P2;durP2;ratioP2
5191;SDS011;2615;44.524;11.284;2023-03-18T00:02:25;7.90;;;7.10;;
5191;SDS011;2615;44.524;11.284;2023-03-18T00:04:54;10.57;;;7.10;;
5191;SDS011;2615;44.524;11.284;2023-03-18T00:07:22;12.40;;;7.10;;
5191;SDS011;2615;44.524;11.284;2023-03-18T00:09:51;10.50;;;7.23;;
5191;SDS011;2615;44.524;11.284;2023-03-18T00:12:20;14.60;;;7.83;;
5191;SDS011;2615;44.524;11.284;2023-03-18T00:14:48;13.10;;;7.53;;
5191;SDS011;2615;44.524;11.284;2023-03-18T00:17:17;8.60;;;7.20;;
5191;SDS011;2615;44.524;11.284;2023-03-18T00:19:46;12.70;;;7.60;;
5191;SDS011;2615;44.524;11.284;2023-03-18T00:22:15;9.60;;;7.70;;
5191;SDS011;2615;44.524;11.284;2023-03-18T00:24:44;11.07;;;8.00;;
5191;SDS011;2615;44.524;11.284;2023-03-18T00:27:12;9.20;;;7.20;;
5191;SDS011;2615;44.524;11.284;2023-03-18T00:29:41;11.40;;;7.40;;
5191;SDS011;2615;44.524;11.284;2023-03-18T00:32:11;10.87;;;7.13;;
5191;SDS011;2615;44.524;11.284;2023-03-18T00:34:39;9.47;;;7.00;;
5191;SDS011;2615;44.524;11.284;2023-03-18T00:37:08;10.77;;;7.70;;
5191;SDS011;2615;44.524;11.284;2023-03-18T00:39:43;14.50;;;7.70;;
5191;SDS011;2615;44.524;11.284;2023-03-18T00:42:12;10.27;;;7.07;;
5191;SDS011;2615;44.524;11.284;2023-03-18T00:44:42;9.10;;;6.60;;
5191;SDS011;2615;44.524;11.284;2023-03-18T00:47:10;15.47;;;8.30;;
5191;SDS011;2615;44.524;11.284;2023-03-18T00:49:38;27.20;;;8.57;;
5191;SDS011;2615;44.524;11.284;2023-03-18T00:52:07;13.53;;;7.23;;
5191;SDS011;2615;44.524;11.284;2023-03-18T00:54:35;12.60;;;8.23;;
5191;SDS011;2615;44.524;11.284;2023-03-18T00:57:03;10.67;;;6.70;;
5191;SDS011;2615;44.524;11.284;2023-03-18T00:59:31;11.10;;;6.90;;
5191;SDS011;2615;44.524;11.284;2023-03-18T01:02:01;10.43;;;7.50;;
5191;SDS011;2615;44.524;11.284;2023-03-18T01:04:29;8.33;;;6.70;;
5191;SDS011;2615;44.524;11.284;2023-03-18T01:06:57;9.57;;;7.57;;
5191;SDS011;2615;44.524;11.284;2023-03-18T01:09:26;10.97;;;7.07;;
5191;SDS011;2615;44.524;11.284;2023-03-18T01:11:54;10.17;;;7.47;;
5191;SDS011;2615;44.524;11.284;2023-03-18T01:14:22;9.50;;;7.17;;
5191;SDS011;2615;44.524;11.284;2023-03-18T01:16:50;9.47;;;7.17;;
5191;SDS011;2615;44.524;11.284;2023-03-18T01:19:20;8.43;;;7.20;;
5191;SDS011;2615;44.524;11.284;2023-03-18T01:21:49;8.87;;;6.70;;
5191;SDS011;2615;44.524;11.284;2023-03-18T01:24:17;10.70;;;7.03;;
5191;SDS011;2615;44.524;11.284;2023-03-18T01:26:45;9.87;;;6.83;;
5191;SDS011;2615;44.524;11.284;2023-03-18T01:29:13;9.73;;;6.80;;
5191;SDS011;2615;44.524;11.284;2023-03-18T01:31:42;10.33;;;6.43;;
5191;SDS011;2615;44.524;11.284;2023-03-18T01:34:12;9.40;;;6.60;;
5191;SDS011;2615;44.524;11.284;2023-03-18T01:36:43;9.87;;;6.50;;
5191;SDS011;2615;44.524;11.284;2023-03-18T01:39:11;15.00;;;7.80;;
5191;SDS011;2615;44.524;11.284;2023-03-18T01:41:39;9.67;;;7.00;;
5191;SDS011;2615;44.524;11.284;2023-03-18T01:44:11;14.23;;;7.10;;
5191;SDS011;2615;44.524;11.284;2023-03-18T01:46:40;9.77;;;8.00;;
5191;SDS011;2615;44.524;11.284;2023-03-18T01:49:11;9.80;;;6.73;;
5191;SDS011;2615;44.524;11.284;2023-03-18T01:51:45;11.90;;;7.20;;
5191;SDS011;2615;44.524;11.284;2023-03-18T01:54:17;10.07;;;7.20;;
5191;SDS011;2615;44.524;11.284;2023-03-18T01:56:46;10.43;;;7.50;;
5191;SDS011;2615;44.524;11.284;2023-03-18T01:59:17;13.57;;;7.43;;
5191;SDS011;2615;44.524;11.284;2023-03-18T02:01:47;12.00;;;7.00;;
5191;SDS011;2615;44.524;11.284;2023-03-18T02:04:18;8.70;;;7.60;;
5191;SDS011;2615;44.524;11.284;2023-03-18T02:06:51;15.23;;;8.43;;
5191;SDS011;2615;44.524;11.284;2023-03-18T02:09:19;12.10;;;7.47;;
5191;SDS011;2615;44.524;11.284;2023-03-18T02:11:47;9.90;;;6.93;;
5191;SDS011;2615;44.524;11.284;2023-03-18T02:14:16;10.30;;;7.43;;
5191;SDS011;2615;44.524;11.284;2023-03-18T02:16:51;9.93;;;8.47;;
5191;SDS011;2615;44.524;11.284;2023-03-18T02:19:29;11.50;;;8.30;;
5191;SDS011;2615;44.524;11.284;2023-03-18T02:22:21;12.87;;;8.73;;
5191;SDS011;2615;44.524;11.284;2023-03-18T02:24:55;10.37;;;7.47;;
5191;SDS011;2615;44.524;11.284;2023-03-18T02:27:36;9.70;;;7.17;;
5191;SDS011;2615;44.524;11.284;2023-03-18T02:30:08;15.50;;;7.40;;
5191;SDS011;2615;44.524;11.284;2023-03-18T02:32:40;12.27;;;7.37;;
5191;SDS011;2615;44.524;11.284;2023-03-18T02:35:12;10.90;;;7.27;;
5191;SDS011;2615;44.524;11.284;2023-03-18T02:37:40;11.87;;;7.63;;
5191;SDS011;2615;44.524;11.284;2023-03-18T02:40:12;10.13;;;6.90;;
5191;SDS011;2615;44.524;11.284;2023-03-18T02:42:45;8.97;;;7.10;;
5191;SDS011;2615;44.524;11.284;2023-03-18T02:45:18;11.47;;;7.53;;
5191;SDS011;2615;44.524;11.284;2023-03-18T02:47:56;12.33;;;7.20;;
5191;SDS011;2615;44.524;11.284;2023-03-18T02:50:29;12.97;;;7.57;;
5191;SDS011;2615;44.524;11.284;2023-03-18T02:52:57;10.37;;;7.93;;
5191;SDS011;2615;44.524;11.284;2023-03-18T02:55:27;9.37;;;6.43;;
5191;SDS011;2615;44.524;11.284;2023-03-18T02:57:56;10.60;;;7.33;;
5191;SDS011;2615;44.524;11.284;2023-03-18T03:00:25;14.63;;;7.93;;
5191;SDS011;2615;44.524;11.284;2023-03-18T03:02:53;10.07;;;6.90;;
5191;SDS011;2615;44.524;11.284;2023-03-18T03:05:21;10.63;;;6.80;;
5191;SDS011;2615;44.524;11.284;2023-03-18T03:07:49;10.83;;;7.47;;
5191;SDS011;2615;44.524;11.284;2023-03-18T03:10:17;8.00;;;6.43;;
5191;SDS011;2615;44.524;11.284;2023-03-18T03:12:46;10.07;;;7.67;;
5191;SDS011;2615;44.524;11.284;2023-03-18T03:15:15;10.10;;;8.43;;
5191;SDS011;2615;44.524;11.284;2023-03-18T03:17:44;10.30;;;6.37;;
5191;SDS011;2615;44.524;11.284;2023-03-18T03:20:13;10.87;;;7.67;;
5191;SDS011;2615;44.524;11.284;2023-03-18T03:22:43;9.83;;;7.50;;
5191;SDS011;2615;44.524;11.284;2023-03-18T03:25:12;10.67;;;7.83;;
5191;SDS011;2615;44.524;11.284;2023-03-18T03:27:41;12.63;;;7.17;;
5191;SDS011;2615;44.524;11.284;2023-03-18T03:30:10;17.40;;;7.17;;
5191;SDS011;2615;44.524;11.284;2023-03-18T03:32:40;12.27;;;7.77;;
5191;SDS011;2615;44.524;11.284;2023-03-18T03:35:09;12.07;;;7.23;;
5191;SDS011;2615;44.524;11.284;2023-03-18T03:37:39;10.30;;;7.17;;
5191;SDS011;2615;44.524;11.284;2023-03-18T03:40:07;9.57;;;7.10;;
5191;SDS011;2615;44.524;11.284;2023-03-18T03:42:36;14.37;;;7.70;;
5191;SDS011;2615;44.524;11.284;2023-03-18T03:45:06;11.17;;;7.87;;
5191;SDS011;2615;44.524;11.284;2023-03-18T03:47:35;9.47;;;6.63;;
5191;SDS011;2615;44.524;11.284;2023-03-18T03:50:05;10.80;;;7.67;;
5191;SDS011;2615;44.524;11.284;2023-03-18T03:52:34;8.00;;;6.53;;
5191;SDS011;2615;44.524;11.284;2023-03-18T03:55:02;8.13;;;6.73;;
5191;SDS011;2615;44.524;11.284;2023-03-18T03:57:32;9.43;;;7.07;;
5191;SDS011;2615;44.524;11.284;2023-03-18T04:00:00;10.13;;;7.47;;
5191;SDS011;2615;44.524;11.284;2023-03-18T04:02:30;10.30;;;7.00;;
5191;SDS011;2615;44.524;11.284;2023-03-18T04:04:58;8.53;;;7.00;;
5191;SDS011;2615;44.524;11.284;2023-03-18T04:07:27;9.03;;;6.63;;
5191;SDS011;2615;44.524;11.284;2023-03-18T04:09:55;18.33;;;7.50;;
5191;SDS011;2615;44.524;11.284;2023-03-18T04:12:24;10.90;;;6.97;;
5191;SDS011;2615;44.524;11.284;2023-03-18T04:14:52;10.00;;;6.93;;
5191;SDS011;2615;44.524;11.284;2023-03-18T04:17:20;10.70;;;6.97;;
5191;SDS011;2615;44.524;11.284;2023-03-18T04:19:48;12.00;;;7.33;;
5191;SDS011;2615;44.524;11.284;2023-03-18T04:22:16;10.20;;;7.37;;
5191;SDS011;2615;44.524;11.284;2023-03-18T04:24:46;12.30;;;7.70;;
5191;SDS011;2615;44.524;11.284;2023-03-18T04:27:14;10.37;;;7.10;;
5191;SDS011;2615;44.524;11.284;2023-03-18T04:29:43;12.83;;;7.33;;
5191;SDS011;2615;44.524;11.284;2023-03-18T04:32:11;11.10;;;7.53;;
5191;SDS011;2615;44.524;11.284;2023-03-18T04:34:40;10.87;;;7.20;;
5191;SDS011;2615;44.524;11.284;2023-03-18T04:37:08;9.90;;;7.30;;
5191;SDS011;2615;44.524;11.284;2023-03-18T04:39:36;11.60;;;6.87;;
5191;SDS011;2615;44.524;11.284;2023-03-18T04:42:06;9.30;;;7.33;;
5191;SDS011;2615;44.524;11.284;2023-03-18T04:44:34;7.70;;;6.90;;
5191;SDS011;2615;44.524;11.284;2023-03-18T04:47:02;11.43;;;6.67;;
5191;SDS011;2615;44.524;11.284;2023-03-18T04:49:31;14.80;;;7.50;;
5191;SDS011;2615;44.524;11.284;2023-03-18T04:51:59;9.47;;;7.30;;
5191;SDS011;2615;44.524;11.284;2023-03-18T04:54:29;10.37;;;7.10;;
5191;SDS011;2615;44.524;11.284;2023-03-18T04:56:57;9.50;;;7.00;;
5191;SDS011;2615;44.524;11.284;2023-03-18T04:59:27;11.00;;;7.57;;
5191;SDS011;2615;44.524;11.284;2023-03-18T05:01:55;18.13;;;7.60;;
5191;SDS011;2615;44.524;11.284;2023-03-18T05:04:23;14.33;;;7.10;;
5191;SDS011;2615;44.524;11.284;2023-03-18T05:06:51;10.27;;;6.37;;
5191;SDS011;2615;44.524;11.284;2023-03-18T05:09:20;30.23;;;8.30;;
5191;SDS011;2615;44.524;11.284;2023-03-18T05:11:48;21.63;;;7.60;;
5191;SDS011;2615;44.524;11.284;2023-03-18T05:14:16;11.07;;;7.57;;
5191;SDS011;2615;44.524;11.284;2023-03-18T05:16:45;12.00;;;6.80;;
5191;SDS011;2615;44.524;11.284;2023-03-18T05:19:14;9.40;;;6.53;;
5191;SDS011;2615;44.524;11.284;2023-03-18T05:21:42;8.93;;;6.40;;
5191;SDS011;2615;44.524;11.284;2023-03-18T05:24:10;9.47;;;6.30;;
5191;SDS011;2615;44.524;11.284;2023-03-18T05:26:38;10.33;;;6.60;;
5191;SDS011;2615;44.524;11.284;2023-03-18T05:29:06;18.27;;;6.97;;
5191;SDS011;2615;44.524;11.284;2023-03-18T05:31:35;17.83;;;7.27;;
5191;SDS011;2615;44.524;11.284;2023-03-18T05:34:04;8.00;;;5.83;;
5191;SDS011;2615;44.524;11.284;2023-03-18T05:36:34;13.23;;;7.07;;
5191;SDS011;2615;44.524;11.284;2023-03-18T05:39:02;12.40;;;8.33;;
5191;SDS011;2615;44.524;11.284;2023-03-18T05:41:30;14.80;;;7.03;;
5191;SDS011;2615;44.524;11.284;2023-03-18T05:43:58;11.17;;;7.47;;
5191;SDS011;2615;44.524;11.284;2023-03-18T05:46:26;26.10;;;8.80;;
5191;SDS011;2615;44.524;11.284;2023-03-18T05:48:54;41.97;;;9.50;;
5191;SDS011;2615;44.524;11.284;2023-03-18T05:51:24;9.00;;;7.10;;
5191;SDS011;2615;44.524;11.284;2023-03-18T05:53:53;9.27;;;5.77;;
5191;SDS011;2615;44.524;11.284;2023-03-18T05:56:21;10.00;;;6.03;;
5191;SDS011;2615;44.524;11.284;2023-03-18T05:58:50;18.03;;;6.87;;
5191;SDS011;2615;44.524;11.284;2023-03-18T06:01:19;9.13;;;5.73;;
5191;SDS011;2615;44.524;11.284;2023-03-18T06:03:47;9.07;;;6.37;;
5191;SDS011;2615;44.524;11.284;2023-03-18T06:06:15;10.17;;;6.90;;
5191;SDS011;2615;44.524;11.284;2023-03-18T06:08:45;11.13;;;6.97;;
5191;SDS011;2615;44.524;11.284;2023-03-18T06:11:13;11.30;;;6.67;;
5191;SDS011;2615;44.524;11.284;2023-03-18T06:13:42;10.43;;;7.27;;
5191;SDS011;2615;44.524;11.284;2023-03-18T06:16:10;11.00;;;7.50;;
5191;SDS011;2615;44.524;11.284;2023-03-18T06:18:39;11.73;;;6.70;;
5191;SDS011;2615;44.524;11.284;2023-03-18T06:21:08;13.07;;;7.33;;
5191;SDS011;2615;44.524;11.284;2023-03-18T06:23:36;9.53;;;6.50;;
5191;SDS011;2615;44.524;11.284;2023-03-18T06:26:06;8.23;;;6.40;;
5191;SDS011;2615;44.524;11.284;2023-03-18T06:28:34;15.33;;;7.40;;
5191;SDS011;2615;44.524;11.284;2023-03-18T06:31:02;10.20;;;7.40;;
5191;SDS011;2615;44.524;11.284;2023-03-18T06:33:30;9.57;;;7.10;;
5191;SDS011;2615;44.524;11.284;2023-03-18T06:35:59;9.70;;;6.50;;
5191;SDS011;2615;44.524;11.284;2023-03-18T06:38:27;12.40;;;7.07;;
5191;SDS011;2615;44.524;11.284;2023-03-18T06:40:56;10.10;;;6.83;;
5191;SDS011;2615;44.524;11.284;2023-03-18T06:43:26;15.20;;;7.37;;
5191;SDS011;2615;44.524;11.284;2023-03-18T06:45:54;15.70;;;7.60;;
5191;SDS011;2615;44.524;11.284;2023-03-18T06:48:22;8.07;;;6.77;;
5191;SDS011;2615;44.524;11.284;2023-03-18T06:50:50;7.70;;;6.53;;
5191;SDS011;2615;44.524;11.284;2023-03-18T06:53:19;9.27;;;6.87;;
5191;SDS011;2615;44.524;11.284;2023-03-18T06:55:47;9.63;;;6.07;;
5191;SDS011;2615;44.524;11.284;2023-03-18T06:58:16;8.60;;;6.17;;
5191;SDS011;2615;44.524;11.284;2023-03-18T07:00:45;11.60;;;7.70;;
5191;SDS011;2615;44.524;11.284;2023-03-18T07:03:13;12.20;;;7.30;;
5191;SDS011;2615;44.524;11.284;2023-03-18T07:05:41;12.63;;;8.20;;
5191;SDS011;2615;44.524;11.284;2023-03-18T07:08:10;10.47;;;7.17;;
5191;SDS011;2615;44.524;11.284;2023-03-18T07:10:38;11.47;;;7.37;;
5191;SDS011;2615;44.524;11.284;2023-03-18T07:13:06;12.00;;;6.77;;
5191;SDS011;2615;44.524;11.284;2023-03-18T07:15:35;8.93;;;6.80;;
5191;SDS011;2615;44.524;11.284;2023-03-18T07:18:05;10.87;;;7.37;;
5191;SDS011;2615;44.524;11.284;2023-03-18T07:20:37;9.97;;;7.07;;
5191;SDS011;2615;44.524;11.284;2023-03-18T07:23:05;13.60;;;7.40;;
5191;SDS011;2615;44.524;11.284;2023-03-18T07:25:33;12.40;;;8.17;;
5191;SDS011;2615;44.524;11.284;2023-03-18T07:28:02;11.00;;;6.70;;
5191;SDS011;2615;44.524;11.284;2023-03-18T07:30:31;13.27;;;8.20;;
5191;SDS011;2615;44.524;11.284;2023-03-18T07:32:59;9.87;;;7.63;;
5191;SDS011;2615;44.524;11.284;2023-03-18T07:35:30;16.20;;;8.10;;
5191;SDS011;2615;44.524;11.284;2023-03-18T07:37:59;12.43;;;8.50;;
5191;SDS011;2615;44.524;11.284;2023-03-18T07:40:27;16.20;;;9.80;;
5191;SDS011;2615;44.524;11.284;2023-03-18T07:42:55;13.20;;;9.27;;
5191;SDS011;2615;44.524;11.284;2023-03-18T07:45:23;15.60;;;9.73;;
5191;SDS011;2615;44.524;11.284;2023-03-18T07:47:51;11.70;;;8.53;;
5191;SDS011;2615;44.524;11.284;2023-03-18T07:50:19;14.20;;;9.07;;
5191;SDS011;2615;44.524;11.284;2023-03-18T07:52:49;16.67;;;8.77;;
5191;SDS011;2615;44.524;11.284;2023-03-18T07:55:18;14.60;;;10.03;;
5191;SDS011;2615;44.524;11.284;2023-03-18T07:57:46;13.37;;;9.10;;
5191;SDS011;2615;44.524;11.284;2023-03-18T08:00:14;15.27;;;9.93;;
5191;SDS011;2615;44.524;11.284;2023-03-18T08:02:43;15.67;;;9.60;;
5191;SDS011;2615;44.524;11.284;2023-03-18T08:05:11;13.10;;;8.70;;
5191;SDS011;2615;44.524;11.284;2023-03-18T08:07:40;16.80;;;10.43;;
5191;SDS011;2615;44.524;11.284;2023-03-18T08:10:10;14.70;;;9.90;;
5191;SDS011;2615;44.524;11.284;2023-03-18T08:12:40;18.80;;;10.97;;
5191;SDS011;2615;44.524;11.284;2023-03-18T08:15:18;13.03;;;9.80;;
5191;SDS011;2615;44.524;11.284;2023-03-18T08:17:47;14.60;;;10.77;;
5191;SDS011;2615;44.524;11.284;2023-03-18T08:20:15;15.60;;;11.77;;
5191;SDS011;2615;44.524;11.284;2023-03-18T08:22:43;14.33;;;10.30;;
5191;SDS011;2615;44.524;11.284;2023-03-18T08:25:13;16.70;;;11.43;;
5191;SDS011;2615;44.524;11.284;2023-03-18T08:27:41;14.90;;;11.40;;
5191;SDS011;2615;44.524;11.284;2023-03-18T08:30:10;15.63;;;11.90;;
5191;SDS011;2615;44.524;11.284;2023-03-18T08:32:40;17.60;;;11.63;;
5191;SDS011;2615;44.524;11.284;2023-03-18T08:35:08;16.57;;;11.60;;
5191;SDS011;2615;44.524;11.284;2023-03-18T08:37:37;14.27;;;10.90;;
5191;SDS011;2615;44.524;11.284;2023-03-18T08:40:05;19.70;;;12.00;;
5191;SDS011;2615;44.524;11.284;2023-03-18T08:42:36;16.20;;;10.80;;
5191;SDS011;2615;44.524;11.284;2023-03-18T08:45:05;20.80;;;12.43;;
5191;SDS011;2615;44.524;11.284;2023-03-18T08:47:33;18.53;;;12.20;;
5191;SDS011;2615;44.524;11.284;2023-03-18T08:50:01;16.57;;;12.40;;
5191;SDS011;2615;44.524;11.284;2023-03-18T08:52:31;17.43;;;13.57;;
5191;SDS011;2615;44.524;11.284;2023-03-18T08:54:59;17.33;;;12.60;;
5191;SDS011;2615;44.524;11.284;2023-03-18T08:57:27;21.53;;;13.03;;
5191;SDS011;2615;44.524;11.284;2023-03-18T08:59:57;20.47;;;12.70;;
5191;SDS011;2615;44.524;11.284;2023-03-18T09:02:25;18.70;;;12.23;;
5191;SDS011;2615;44.524;11.284;2023-03-18T09:04:53;18.63;;;13.23;;
5191;SDS011;2615;44.524;11.284;2023-03-18T09:07:22;14.80;;;11.07;;
5191;SDS011;2615;44.524;11.284;2023-03-18T09:09:51;20.10;;;13.73;;
5191;SDS011;2615;44.524;11.284;2023-03-18T09:12:20;20.37;;;13.87;;
5191;SDS011;2615;44.524;11.284;2023-03-18T09:14:48;23.10;;;14.37;;
5191;SDS011;2615;44.524;11.284;2023-03-18T09:17:18;15.63;;;11.40;;
5191;SDS011;2615;44.524;11.284;2023-03-18T09:19:48;16.50;;;12.90;;
5191;SDS011;2615;44.524;11.284;2023-03-18T09:22:16;23.90;;;15.10;;
5191;SDS011;2615;44.524;11.284;2023-03-18T09:24:45;21.47;;;15.20;;
5191;SDS011;2615;44.524;11.284;2023-03-18T09:27:13;20.20;;;12.90;;
5191;SDS011;2615;44.524;11.284;2023-03-18T09:29:41;20.27;;;14.50;;
5191;SDS011;2615;44.524;11.284;2023-03-18T09:32:09;19.03;;;12.17;;
5191;SDS011;2615;44.524;11.284;2023-03-18T09:34:38;23.17;;;14.50;;
5191;SDS011;2615;44.524;11.284;2023-03-18T09:37:06;20.00;;;13.37;;
5191;SDS011;2615;44.524;11.284;2023-03-18T09:39:35;18.03;;;12.07;;
5191;SDS011;2615;44.524;11.284;2023-03-18T09:42:08;17.47;;;12.50;;
5191;SDS011;2615;44.524;11.284;2023-03-18T09:44:45;14.03;;;10.53;;
5191;SDS011;2615;44.524;11.284;2023-03-18T09:47:24;17.27;;;12.17;;
5191;SDS011;2615;44.524;11.284;2023-03-18T09:50:12;14.43;;;11.43;;
5191;SDS011;2615;44.524;11.284;2023-03-18T09:52:49;17.83;;;12.20;;
5191;SDS011;2615;44.524;11.284;2023-03-18T09:55:32;16.97;;;11.33;;
5191;SDS011;2615;44.524;11.284;2023-03-18T09:58:07;17.20;;;11.20;;
5191;SDS011;2615;44.524;11.284;2023-03-18T10:00:48;16.00;;;10.90;;
5191;SDS011;2615;44.524;11.284;2023-03-18T10:03:27;15.60;;;11.10;;
5191;SDS011;2615;44.524;11.284;2023-03-18T10:06:04;14.97;;;10.23;;
5191;SDS011;2615;44.524;11.284;2023-03-18T10:08:38;15.93;;;10.90;;
5191;SDS011;2615;44.524;11.284;2023-03-18T10:11:12;15.47;;;10.80;;
5191;SDS011;2615;44.524;11.284;2023-03-18T10:13:51;13.30;;;10.33;;
5191;SDS011;2615;44.524;11.284;2023-03-18T10:16:26;14.80;;;11.10;;
5191;SDS011;2615;44.524;11.284;2023-03-18T10:18:57;16.07;;;11.43;;
5191;SDS011;2615;44.524;11.284;2023-03-18T10:21:30;17.07;;;10.13;;
5191;SDS011;2615;44.524;11.284;2023-03-18T10:24:08;13.10;;;11.00;;
5191;SDS011;2615;44.524;11.284;2023-03-18T10:26:44;12.80;;;10.43;;
5191;SDS011;2615;44.524;11.284;2023-03-18T10:29:20;17.07;;;10.30;;
5191;SDS011;2615;44.524;11.284;2023-03-18T10:32:12;13.93;;;10.60;;
5191;SDS011;2615;44.524;11.284;2023-03-18T10:34:55;14.87;;;10.67;;
5191;SDS011;2615;44.524;11.284;2023-03-18T10:37:50;13.20;;;8.23;;
5191;SDS011;2615;44.524;11.284;2023-03-18T10:40:28;12.40;;;9.03;;
5191;SDS011;2615;44.524;11.284;2023-03-18T10:43:14;14.73;;;10.20;;
5191;SDS011;2615;44.524;11.284;2023-03-18T10:46:03;16.07;;;10.00;;
5191;SDS011;2615;44.524;11.284;2023-03-18T10:49:32;14.30;;;10.83;;
5191;SDS011;2615;44.524;11.284;2023-03-18T10:55:12;13.47;;;10.03;;
5191;SDS011;2615;44.524;11.284;2023-03-18T10:57:58;12.70;;;9.20;;
5191;SDS011;2615;44.524;11.284;2023-03-18T11:00:49;11.10;;;8.00;;
5191;SDS011;2615;44.524;11.284;2023-03-18T11:03:39;10.40;;;7.60;;
5191;SDS011;2615;44.524;11.284;2023-03-18T11:06:25;12.47;;;8.10;;
5191;SDS011;2615;44.524;11.284;2023-03-18T11:09:17;12.20;;;9.17;;
5191;SDS011;2615;44.524;11.284;2023-03-18T11:12:13;16.10;;;11.43;;
5191;SDS011;2615;44.524;11.284;2023-03-18T11:14:57;15.57;;;11.13;;
5191;SDS011;2615;44.524;11.284;2023-03-18T11:17:56;14.27;;;9.70;;
5191;SDS011;2615;44.524;11.284;2023-03-18T11:20:42;13.57;;;8.97;;
5191;SDS011;2615;44.524;11.284;2023-03-18T11:23:17;11.70;;;8.60;;
5191;SDS011;2615;44.524;11.284;2023-03-18T11:26:25;16.27;;;9.60;;
5191;SDS011;2615;44.524;11.284;2023-03-18T11:31:57;12.77;;;9.40;;
5191;SDS011;2615;44.524;11.284;2023-03-18T11:34:40;11.90;;;9.33;;
5191;SDS011;2615;44.524;11.284;2023-03-18T11:37:46;11.87;;;8.50;;
5191;SDS011;2615;44.524;11.284;2023-03-18T11:40:28;11.77;;;8.00;;
5191;SDS011;2615;44.524;11.284;2023-03-18T11:43:27;10.87;;;6.70;;
5191;SDS011;2615;44.524;11.284;2023-03-18T11:46:14;10.20;;;8.20;;
5191;SDS011;2615;44.524;11.284;2023-03-18T11:49:13;11.00;;;8.07;;
5191;SDS011;2615;44.524;11.284;2023-03-18T11:55:20;10.50;;;7.47;;
5191;SDS011;2615;44.524;11.284;2023-03-18T11:58:20;13.93;;;8.53;;
5191;SDS011;2615;44.524;11.284;2023-03-18T12:01:18;9.40;;;8.40;;
5191;SDS011;2615;44.524;11.284;2023-03-18T12:06:55;11.30;;;9.20;;
5191;SDS011;2615;44.524;11.284;2023-03-18T12:09:34;9.27;;;7.10;;
5191;SDS011;2615;44.524;11.284;2023-03-18T12:12:14;10.87;;;7.30;;
5191;SDS011;2615;44.524;11.284;2023-03-18T12:14:48;12.00;;;7.67;;
5191;SDS011;2615;44.524;11.284;2023-03-18T12:17:52;13.33;;;8.47;;
5191;SDS011;2615;44.524;11.284;2023-03-18T12:20:30;10.67;;;8.13;;
5191;SDS011;2615;44.524;11.284;2023-03-18T12:23:24;13.83;;;8.83;;
5191;SDS011;2615;44.524;11.284;2023-03-18T12:26:01;11.83;;;9.30;;
5191;SDS011;2615;44.524;11.284;2023-03-18T12:28:37;10.10;;;8.20;;
5191;SDS011;2615;44.524;11.284;2023-03-18T12:31:36;11.03;;;8.30;;
5191;SDS011;2615;44.524;11.284;2023-03-18T12:34:50;8.57;;;7.33;;
5191;SDS011;2615;44.524;11.284;2023-03-18T12:37:52;11.47;;;8.10;;
5191;SDS011;2615;44.524;11.284;2023-03-18T12:41:15;9.30;;;7.43;;
5191;SDS011;2615;44.524;11.284;2023-03-18T12:44:17;10.43;;;7.93;;
5191;SDS011;2615;44.524;11.284;2023-03-18T12:47:28;7.90;;;5.87;;
5191;SDS011;2615;44.524;11.284;2023-03-18T12:50:14;10.33;;;8.03;;
5191;SDS011;2615;44.524;11.284;2023-03-18T12:53:26;11.30;;;8.20;;
5191;SDS011;2615;44.524;11.284;2023-03-18T12:56:33;17.40;;;9.00;;
5191;SDS011;2615;44.524;11.284;2023-03-18T12:59:49;9.97;;;8.33;;
5191;SDS011;2615;44.524;11.284;2023-03-18T13:02:44;10.27;;;7.60;;
5191;SDS011;2615;44.524;11.284;2023-03-18T13:05:39;15.37;;;8.43;;
5191;SDS011;2615;44.524;11.284;2023-03-18T13:08:38;8.67;;;7.77;;
5191;SDS011;2615;44.524;11.284;2023-03-18T13:11:44;8.80;;;7.27;;
5191;SDS011;2615;44.524;11.284;2023-03-18T13:17:47;10.63;;;7.83;;
5191;SDS011;2615;44.524;11.284;2023-03-18T13:20:26;10.13;;;7.37;;
5191;SDS011;2615;44.524;11.284;2023-03-18T13:23:07;12.27;;;8.23;;
5191;SDS011;2615;44.524;11.284;2023-03-18T13:25:49;10.30;;;7.47;;
5191;SDS011;2615;44.524;11.284;2023-03-18T13:28:31;7.40;;;6.40;;
5191;SDS011;2615;44.524;11.284;2023-03-18T13:31:20;11.17;;;7.77;;
5191;SDS011;2615;44.524;11.284;2023-03-18T13:34:08;11.30;;;7.50;;
5191;SDS011;2615;44.524;11.284;2023-03-18T13:36:55;9.40;;;7.27;;
5191;SDS011;2615;44.524;11.284;2023-03-18T13:39:50;11.63;;;9.07;;
5191;SDS011;2615;44.524;11.284;2023-03-18T13:42:26;9.50;;;7.30;;
5191;SDS011;2615;44.524;11.284;2023-03-18T13:44:57;11.10;;;8.33;;
5191;SDS011;2615;44.524;11.284;2023-03-18T13:47:32;12.97;;;8.27;;
5191;SDS011;2615;44.524;11.284;2023-03-18T13:50:04;10.00;;;7.90;;
5191;SDS011;2615;44.524;11.284;2023-03-18T13:52:51;10.73;;;7.50;;
5191;SDS011;2615;44.524;11.284;2023-03-18T13:55:25;11.20;;;8.77;;
5191;SDS011;2615;44.524;11.284;2023-03-18T13:58:07;12.90;;;7.20;;
5191;SDS011;2615;44.524;11.284;2023-03-18T14:00:44;9.70;;;7.73;;
5191;SDS011;2615;44.524;11.284;2023-03-18T14:03:51;9.23;;;8.30;;
5191;SDS011;2615;44.524;11.284;2023-03-18T14:06:21;11.80;;;7.57;;
5191;SDS011;2615;44.524;11.284;2023-03-18T14:08:51;9.27;;;7.53;;
5191;SDS011;2615;44.524;11.284;2023-03-18T14:11:39;9.20;;;7.17;;
5191;SDS011;2615;44.524;11.284;2023-03-18T14:17:37;9.60;;;8.30;;
5191;SDS011;2615;44.524;11.284;2023-03-18T14:20:23;14.43;;;8.50;;
5191;SDS011;2615;44.524;11.284;2023-03-18T14:22:54;10.40;;;8.30;;
5191;SDS011;2615;44.524;11.284;2023-03-18T14:25:38;17.07;;;8.43;;
5191;SDS011;2615;44.524;11.284;2023-03-18T14:28:15;9.80;;;8.77;;
5191;SDS011;2615;44.524;11.284;2023-03-18T14:30:57;14.60;;;9.37;;
5191;SDS011;2615;44.524;11.284;2023-03-18T14:33:50;14.37;;;10.30;;
5191;SDS011;2615;44.524;11.284;2023-03-18T14:39:28;15.30;;;10.90;;
5191;SDS011;2615;44.524;11.284;2023-03-18T14:42:01;12.50;;;10.53;;
5191;SDS011;2615;44.524;11.284;2023-03-18T14:44:40;11.43;;;9.30;;
5191;SDS011;2615;44.524;11.284;2023-03-18T14:47:16;11.30;;;8.77;;
5191;SDS011;2615;44.524;11.284;2023-03-18T14:50:03;11.73;;;9.20;;
5191;SDS011;2615;44.524;11.284;2023-03-18T14:52:40;14.03;;;11.20;;
5191;SDS011;2615;44.524;11.284;2023-03-18T14:55:13;12.67;;;10.43;;
5191;SDS011;2615;44.524;11.284;2023-03-18T14:57:44;13.93;;;9.63;;
5191;SDS011;2615;44.524;11.284;2023-03-18T15:00:15;13.13;;;9.90;;
5191;SDS011;2615;44.524;11.284;2023-03-18T15:02:45;15.20;;;11.43;;
5191;SDS011;2615;44.524;11.284;2023-03-18T15:05:27;11.00;;;8.93;;
5191;SDS011;2615;44.524;11.284;2023-03-18T15:08:00;16.10;;;10.90;;
5191;SDS011;2615;44.524;11.284;2023-03-18T15:10:29;12.50;;;9.27;;
5191;SDS011;2615;44.524;11.284;2023-03-18T15:12:59;12.30;;;9.40;;
5191;SDS011;2615;44.524;11.284;2023-03-18T15:15:31;15.40;;;8.90;;
5191;SDS011;2615;44.524;11.284;2023-03-18T15:18:00;12.90;;;9.10;;
5191;SDS011;2615;44.524;11.284;2023-03-18T15:20:37;18.50;;;8.40;;
5191;SDS011;2615;44.524;11.284;2023-03-18T15:23:06;16.60;;;8.97;;
5191;SDS011;2615;44.524;11.284;2023-03-18T15:25:35;11.40;;;8.33;;
5191;SDS011;2615;44.524;11.284;2023-03-18T15:28:09;17.03;;;9.73;;
5191;SDS011;2615;44.524;11.284;2023-03-18T15:30:50;16.33;;;11.07;;
5191;SDS011;2615;44.524;11.284;2023-03-18T15:33:22;14.87;;;8.03;;
5191;SDS011;2615;44.524;11.284;2023-03-18T15:35:55;17.37;;;9.40;;
5191;SDS011;2615;44.524;11.284;2023-03-18T15:38:25;11.20;;;7.43;;
5191;SDS011;2615;44.524;11.284;2023-03-18T15:40:54;10.33;;;8.57;;
5191;SDS011;2615;44.524;11.284;2023-03-18T15:43:29;12.97;;;8.43;;
5191;SDS011;2615;44.524;11.284;2023-03-18T15:46:05;11.00;;;8.03;;
5191;SDS011;2615;44.524;11.284;2023-03-18T15:48:41;12.07;;;8.30;;
5191;SDS011;2615;44.524;11.284;2023-03-18T15:51:21;13.77;;;8.27;;
5191;SDS011;2615;44.524;11.284;2023-03-18T15:53:53;10.03;;;8.00;;